RPi & Temperatures at JO21ut

Last graph updates: Sunday 18 November 2018 14:02 CET

Sunrise: 08:00 & Sunset: 16:44 The Sun is currently visible at an elevation of 13.92 degrees and azimut of 210 and 147852800 Km from the Earth
Moonrise: 15:14 & Moonset: 1:51 Waxing Gibbous Moon The Moon is 397912 Km from the Earth
Find here more details on MARS.

14:27:14 up 45 days, 14:34, 0 users, load average: 0.50, 0.45, 0.49
Current CPU frequency is: 1000 Mhz
Current GPU temperature: 27.71°C
Current inside temperature is 17.17°C with a humidity of 67.20%
Second inside temperature is 17.3°C with a pressure of 1024.27 Hpa (30.01 inHg) and an uncorrected altitude of -91.10 m
ds18b20 now showing 17.3°C

All the sensors I use, DHT22 | BMP085 | MPU6050 | BH1750FVI | MMA7455 | HMC5883L | MPL3115A2 | DS1307 | HTU21 | AM2321 | DS3231 | INA219 | LM75A , and it's current readout can be viewed here please be patient as it needs to read all sensors data. The page loads after about 10 seconds. In our forum more details can be found such as the used software/sources. Feel free to add yours also..


Pressure BMP085
Pressure BMP085
Pressure BMP085
Pressure BMP085
PI CPU Temp
Inet Volkel temp
Inside temp BMP085
Humidity BMP085
PI CPU Temp
Inet Volkel temp
Inside temp BMP085
Humidity BMP085
PI CPU Temp
Inet Volkel temp
Inside temp BMP085
Humidity BMP085
PI CPU Temp
Inet Volkel temp
Inside temp BMP085
Humidity BMP085
PI CPU Temp
Inet Volkel temp
Inside temp BMP085
Humidity BMP085
Inside light BH1750FV
Inside light BH1750FV
Inside light BH1750FV
Inside light BH1750FV
Inside light BH1750FV
Inside light BH1750FV
Sunlight hours
 

Sun & Moon height


Wijchen weather

Weer Widget
ScreenSaver yr.no

Sun Moon Earth


EHEH 181425Z AUTO 05013KT 020V080 9999 NCD 06/M04 Q1027 BLU 06010KT CAVOK EHEH 181425Z AUTO 05013KT 020V080 9999 NCD 06/M04 Q1027 BLU 06010KT CAVOK EHEH 181425Z AUTO 05013KT 020V080 9999 NCD 06/M04 Q1027 BLU 06010KT CAVOK

Weather data from Volkel [NL] EHVK


-58 minutes ago, at 14:25 UTC, the wind was blowing at a speed of 5.1 meters per second (11.5 miles per hour/10 knots) from East/Northeast (060) in Volkel [EHVK], Netherlands. The temperature was 6 °C (43 °F) with a dewpoint of -4 °C (25 °F), and the pressure was 1,027 hPa (30.33 inHg). The relative humidity was 48.6%. There are no clouds below 1,524 meter (5,000 feet). The visibility was >10 kilometers (>6.2 miles).




View code:

Contact me  |  My Raspberry PI forum